Time;durP1;ratioP1;P1;durP2;ratioP2;P2;SDS_P1;SDS_P2;PMS_P1;PMS_P2;Temp;Humidity;BMP_temperature;BMP_pressure;BME280_temperature;BME280_humidity;BME280_pressure;Samples;Min_cycle;Max_cycle;Signal;HPM_P1;HPM_P2
2022/04/18 00:01:32;;;;;;;2.70;2.05;;;17.50;59.60;;;;;;10460887;28;20033;-51
2022/04/18 00:06:35;;;;;;;3.78;2.75;;;17.50;59.60;;;;;;10460714;28;20067;-51
2022/04/18 00:11:36;;;;;;;4.82;2.60;;;17.50;59.50;;;;;;10460672;28;20619;-50
2022/04/18 00:16:36;;;;;;;2.75;2.30;;;17.50;59.60;;;;;;10460121;28;20090;-52
2022/04/18 00:21:37;;;;;;;3.40;2.35;;;17.50;59.60;;;;;;10469013;28;20075;-51
2022/04/18 00:26:39;;;;;;;4.47;3.45;;;17.50;59.60;;;;;;10461132;28;20401;-50
2022/04/18 00:31:41;;;;;;;4.70;3.05;;;17.50;59.50;;;;;;10459607;28;20053;-50
2022/04/18 00:36:42;;;;;;;3.85;2.55;;;17.50;59.40;;;;;;10458964;28;20036;-49
2022/04/18 00:41:42;;;;;;;4.15;2.53;;;17.50;59.40;;;;;;10459132;28;20088;-52
2022/04/18 00:46:43;;;;;;;4.10;2.72;;;17.40;59.30;;;;;;10458799;28;20492;-51
2022/04/18 00:51:44;;;;;;;4.00;2.95;;;17.40;59.40;;;;;;10458912;28;20039;-51
2022/04/18 00:56:45;;;;;;;4.47;3.30;;;17.50;59.40;;;;;;10458929;28;20036;-51
2022/04/18 01:01:46;;;;;;;3.92;3.35;;;17.40;59.30;;;;;;10458511;28;20527;-51
2022/04/18 01:06:47;;;;;;;4.13;3.20;;;17.40;59.40;;;;;;10456813;28;20476;-55
2022/04/18 01:11:49;;;;;;;3.65;2.63;;;17.40;59.40;;;;;;10457078;28;20033;-51
2022/04/18 01:16:50;;;;;;;3.67;2.67;;;17.40;59.30;;;;;;10456659;28;20025;-52
2022/04/18 01:21:51;;;;;;;4.13;3.58;;;17.40;59.40;;;;;;10468494;28;20032;-49
2022/04/18 01:32:11;;;;;;;3.58;3.05;;;17.40;59.40;;;;;;10457550;28;20103;-50
2022/04/18 01:37:12;;;;;;;4.82;3.33;;;17.40;59.30;;;;;;10457035;28;20033;-50
2022/04/18 01:42:12;;;;;;;5.75;3.47;;;17.40;60.00;;;;;;10472113;28;20061;-53
2022/04/18 01:47:13;;;;;;;4.40;3.15;;;17.40;59.30;;;;;;10456681;28;20049;-53
2022/04/18 01:52:15;;;;;;;4.60;3.10;;;17.30;59.30;;;;;;10456765;28;20029;-51
2022/04/18 01:57:16;;;;;;;4.53;2.88;;;17.30;59.30;;;;;;10455948;28;20025;-49
2022/04/18 02:02:16;;;;;;;4.65;3.08;;;17.30;59.30;;;;;;10456478;28;20109;-50
2022/04/18 02:07:17;;;;;;;3.58;2.60;;;17.30;59.30;;;;;;10455729;28;20066;-51
2022/04/18 02:12:17;;;;;;;3.17;2.65;;;17.30;59.30;;;;;;10456060;28;20064;-50
2022/04/18 02:17:18;;;;;;;4.35;3.28;;;17.30;59.30;;;;;;10455666;28;20399;-51
2022/04/18 02:22:22;;;;;;;4.10;3.13;;;17.30;59.30;;;;;;10462404;28;20444;-52
2022/04/18 02:27:23;;;;;;;3.65;3.00;;;17.30;59.40;;;;;;10455404;28;20520;-51
2022/04/18 02:37:43;;;;;;;3.97;3.27;;;17.30;59.60;;;;;;10455412;28;20124;-50
2022/04/18 02:42:44;;;;;;;4.05;2.92;;;17.40;59.60;;;;;;10453727;28;20272;-52
2022/04/18 02:47:46;;;;;;;3.65;2.97;;;17.30;59.50;;;;;;10454831;28;20064;-50
2022/04/18 02:52:47;;;;;;;3.45;2.70;;;17.30;59.20;;;;;;10454339;28;20037;-52
2022/04/18 02:57:48;;;;;;;3.92;3.22;;;17.30;59.20;;;;;;10453725;28;20529;-50
2022/04/18 03:02:48;;;;;;;4.93;3.35;;;17.30;59.60;;;;;;10454299;28;20086;-48
2022/04/18 03:07:49;;;;;;;3.75;2.95;;;17.30;59.50;;;;;;10454210;28;20033;-49
2022/04/18 03:12:49;;;;;;;4.40;3.35;;;17.30;59.50;;;;;;10453904;28;20122;-51
2022/04/18 03:17:50;;;;;;;5.38;3.42;;;17.20;59.50;;;;;;10454004;28;20064;-52
2022/04/18 03:22:51;;;;;;;5.10;3.67;;;17.20;59.60;;;;;;10464656;28;20075;-53
2022/04/18 03:27:51;;;;;;;5.22;3.85;;;17.30;59.50;;;;;;10452391;28;20520;-50
2022/04/18 03:32:52;;;;;;;4.05;3.17;;;17.30;59.40;;;;;;10453565;28;20119;-52
2022/04/18 03:43:12;;;;;;;4.40;3.30;;;17.30;59.10;;;;;;10454359;28;20037;-54
2022/04/18 03:48:12;;;;;;;5.65;3.92;;;17.30;59.00;;;;;;10453344;28;20108;-53
2022/04/18 03:53:13;;;;;;;4.65;3.38;;;17.30;59.00;;;;;;10453379;28;20091;-52
2022/04/18 03:58:14;;;;;;;3.95;3.35;;;17.30;59.00;;;;;;10453081;28;20059;-51
2022/04/18 04:03:14;;;;;;;3.63;2.92;;;17.20;59.10;;;;;;10444362;28;20127;-52
2022/04/18 04:08:18;;;;;;;5.05;3.58;;;17.20;59.00;;;;;;10455073;28;20071;-53
2022/04/18 04:13:18;;;;;;;4.05;3.20;;;17.20;59.10;;;;;;10460601;28;20090;-52
2022/04/18 04:18:19;;;;;;;4.32;3.67;;;17.20;59.20;;;;;;10458775;28;20074;-49
2022/04/18 04:23:19;;;;;;;5.03;3.95;;;17.20;59.50;;;;;;10464623;28;20040;-53
2022/04/18 04:28:20;;;;;;;5.07;3.88;;;17.20;59.10;;;;;;10472341;28;20140;-51
2022/04/18 04:33:21;;;;;;;4.57;3.60;;;17.30;59.00;;;;;;10459351;28;20079;-54
2022/04/18 04:38:21;;;;;;;4.43;3.65;;;17.30;59.20;;;;;;10459509;28;20139;-50
2022/04/18 04:43:28;;;;;;;4.18;3.72;;;17.30;59.20;;;;;;10459602;28;20065;-52
2022/04/18 04:48:28;;;;;;;5.90;3.72;;;17.30;58.70;;;;;;10459084;28;20068;-51
2022/04/18 04:53:29;;;;;;;4.95;3.70;;;17.20;58.80;;;;;;10459225;28;20035;-52
2022/04/18 04:58:30;;;;;;;4.63;3.25;;;17.30;58.80;;;;;;10457691;28;20112;-51
2022/04/18 05:03:31;;;;;;;5.15;3.28;;;17.20;58.80;;;;;;10457846;28;20102;-50
2022/04/18 05:08:31;;;;;;;5.60;3.20;;;17.20;58.90;;;;;;10459281;28;20032;-48
2022/04/18 05:13:32;;;;;;;6.20;3.65;;;17.20;59.20;;;;;;10457911;28;20523;-49
2022/04/18 05:18:33;;;;;;;8.75;3.88;;;17.20;59.00;;;;;;10457294;28;20039;-48
2022/04/18 05:23:33;;;;;;;15.60;4.30;;;17.40;59.40;;;;;;10463602;28;20032;-47
2022/04/18 05:28:35;;;;;;;7.97;3.80;;;17.50;59.20;;;;;;10457799;28;20047;-50
2022/04/18 05:33:36;;;;;;;7.18;4.03;;;17.50;59.60;;;;;;10458165;28;20048;-47
2022/04/18 05:38:36;;;;;;;8.13;4.15;;;17.50;60.10;;;;;;10478143;28;20127;-48
2022/04/18 05:43:37;;;;;;;7.03;4.47;;;17.50;60.10;;;;;;10448816;28;20095;-49
2022/04/18 05:48:38;;;;;;;11.68;4.80;;;17.40;60.40;;;;;;10451298;28;20043;-48
2022/04/18 05:53:39;;;;;;;19.17;5.32;;;17.40;61.10;;;;;;10455758;28;20477;-47
2022/04/18 05:58:41;;;;;;;16.95;5.72;;;17.30;61.50;;;;;;10455597;28;20438;-47
2022/04/18 06:03:41;;;;;;;16.42;5.43;;;17.30;62.00;;;;;;10455738;28;20435;-48
2022/04/18 06:08:42;;;;;;;10.82;4.10;;;17.40;61.70;;;;;;10455072;28;20052;-47
2022/04/18 06:13:43;;;;;;;23.70;5.68;;;17.40;62.00;;;;;;10453931;28;20492;-48
2022/04/18 06:18:44;;;;;;;18.77;6.35;;;17.40;62.00;;;;;;10454421;28;20064;-48
2022/04/18 06:23:45;;;;;;;28.92;6.65;;;17.40;62.20;;;;;;10461828;28;20044;-48
2022/04/18 06:28:45;;;;;;;19.52;4.53;;;17.40;62.50;;;;;;10468947;28;20087;-47
2022/04/18 06:33:46;;;;;;;13.35;5.35;;;17.30;62.20;;;;;;10453718;28;20033;-49
2022/04/18 06:38:47;;;;;;;31.20;6.65;;;17.30;62.20;;;;;;10454260;28;20453;-48
2022/04/18 06:43:48;;;;;;;23.05;5.95;;;17.20;62.30;;;;;;10453977;28;20035;-50
2022/04/18 06:48:49;;;;;;;22.13;6.40;;;17.20;62.20;;;;;;10453238;28;20115;-51
2022/04/18 06:53:49;;;;;;;20.67;5.05;;;17.20;61.90;;;;;;10454723;28;20148;-47
2022/04/18 06:58:50;;;;;;;14.85;5.40;;;17.30;62.00;;;;;;10454124;28;20111;-48
2022/04/18 07:03:51;;;;;;;17.85;5.55;;;17.20;62.00;;;;;;10446268;28;20472;-49
2022/04/18 07:08:51;;;;;;;13.93;4.68;;;17.20;61.60;;;;;;10468972;28;20127;-48
2022/04/18 07:13:52;;;;;;;6.88;3.75;;;17.20;61.50;;;;;;10452945;28;20061;-49
2022/04/18 07:18:53;;;;;;;7.32;4.00;;;17.20;61.40;;;;;;10450458;28;20051;-49
2022/04/18 07:23:53;;;;;;;6.15;3.83;;;17.20;61.40;;;;;;10456840;28;20130;-50
2022/04/18 07:28:54;;;;;;;5.07;3.30;;;17.20;61.30;;;;;;10452574;28;20186;-49
2022/04/18 07:33:55;;;;;;;9.95;3.78;;;17.10;61.20;;;;;;10453824;28;20124;-50
2022/04/18 07:38:55;;;;;;;4.32;3.55;;;17.10;61.20;;;;;;10453375;28;20446;-49
2022/04/18 07:43:57;;;;;;;13.48;4.90;;;17.10;61.20;;;;;;10456690;28;20025;-49
2022/04/18 07:48:59;;;;;;;21.45;5.78;;;17.10;61.00;;;;;;10461083;28;20033;-48
2022/04/18 07:54:05;;;;;;;11.98;5.13;;;17.10;61.00;;;;;;10461129;28;20033;-47
2022/04/18 07:59:06;;;;;;;11.52;4.68;;;17.20;61.00;;;;;;10460715;28;20470;-48
2022/04/18 08:04:07;;;;;;;10.88;4.68;;;17.20;60.90;;;;;;10460422;28;20028;-52
2022/04/18 08:09:07;;;;;;;11.52;4.18;;;17.20;60.80;;;;;;10460556;28;20029;-47
2022/04/18 08:14:08;;;;;;;7.10;3.97;;;17.20;60.80;;;;;;10460695;28;20076;-49
2022/04/18 08:19:09;;;;;;;10.00;3.85;;;17.30;60.80;;;;;;10459758;28;20167;-49
2022/04/18 08:24:09;;;;;;;11.82;4.18;;;17.30;60.80;;;;;;10462898;28;20087;-48
2022/04/18 08:29:11;;;;;;;11.70;4.60;;;17.30;60.80;;;;;;10459474;28;20076;-51
2022/04/18 08:34:12;;;;;;;7.50;3.17;;;17.30;60.80;;;;;;10460054;28;20079;-48
2022/04/18 08:39:13;;;;;;;11.77;4.00;;;17.30;60.80;;;;;;10459099;28;20037;-51
2022/04/18 08:44:15;;;;;;;7.93;4.30;;;17.30;60.80;;;;;;10459484;28;20029;-49
2022/04/18 08:54:35;;;;;;;7.70;4.05;;;17.40;60.80;;;;;;10457599;28;20496;-47
2022/04/18 08:59:36;;;;;;;6.80;4.07;;;17.40;60.70;;;;;;10458700;28;20032;-50
2022/04/18 09:04:37;;;;;;;7.13;3.63;;;17.40;60.70;;;;;;10458873;28;20124;-47
2022/04/18 09:09:38;;;;;;;7.25;3.63;;;17.40;60.70;;;;;;10458079;28;20120;-47
2022/04/18 09:14:39;;;;;;;5.53;3.45;;;17.40;60.70;;;;;;10456558;28;20117;-47
2022/04/18 09:19:39;;;;;;;12.90;3.50;;;17.40;60.70;;;;;;10457455;28;20459;-47
2022/04/18 09:24:42;;;;;;;6.50;3.72;;;17.40;60.80;;;;;;10468398;28;20025;-48
2022/04/18 09:29:42;;;;;;;9.23;3.28;;;17.40;60.70;;;;;;10457439;28;20110;-48
2022/04/18 09:34:43;;;;;;;7.03;3.50;;;17.40;60.70;;;;;;10456086;28;20037;-48
2022/04/18 09:39:52;;;;;;;6.00;3.22;;;17.50;60.30;;;;;;10456906;28;20067;-48
2022/04/18 09:44:53;;;;;;;5.50;3.75;;;17.50;60.60;;;;;;10456947;28;20054;-49
2022/04/18 09:49:54;;;;;;;5.30;3.47;;;17.50;60.60;;;;;;10457008;28;20025;-50
2022/04/18 09:54:57;;;;;;;5.60;3.45;;;17.50;60.60;;;;;;10456297;28;20037;-48
2022/04/18 09:59:59;;;;;;;6.22;3.15;;;17.50;60.50;;;;;;10456518;28;20608;-48
2022/04/18 10:05:01;;;;;;;6.03;3.40;;;17.60;60.60;;;;;;10454490;28;20067;-49
2022/04/18 10:10:02;;;;;;;6.90;3.60;;;17.60;60.50;;;;;;10455868;28;20106;-50
2022/04/18 10:15:04;;;;;;;4.95;2.90;;;17.60;60.40;;;;;;10455632;28;20513;-47
2022/04/18 10:20:30;;;;;;;4.53;2.80;;;17.70;60.50;;;;;;10455837;28;20108;-47
2022/04/18 10:26:01;;;;;;;4.38;3.25;;;17.70;60.40;;;;;;10465557;28;20448;-49
2022/04/18 10:31:10;;;;;;;7.15;3.20;;;17.70;60.30;;;;;;10455327;28;20057;-50
2022/04/18 10:36:12;;;;;;;3.72;2.53;;;17.80;60.30;;;;;;10453738;28;20029;-48
2022/04/18 10:41:36;;;;;;;4.07;2.67;;;17.80;60.30;;;;;;10454844;28;20062;-50
2022/04/18 10:46:43;;;;;;;3.53;2.13;;;17.80;60.20;;;;;;10454604;28;20072;-47
2022/04/18 10:51:47;;;;;;;5.18;3.05;;;17.80;60.20;;;;;;10453574;28;20028;-49
2022/04/18 10:57:05;;;;;;;4.20;2.30;;;17.90;60.20;;;;;;10454240;28;20413;-48
2022/04/18 11:02:07;;;;;;;4.10;2.30;;;17.90;60.30;;;;;;10454119;28;20436;-48
2022/04/18 11:07:10;;;;;;;3.72;2.33;;;17.90;60.20;;;;;;10453630;28;20482;-48
2022/04/18 11:12:17;;;;;;;3.75;2.50;;;17.90;60.20;;;;;;10454099;28;20037;-48
2022/04/18 11:17:38;;;;;;;3.42;2.28;;;17.90;60.20;;;;;;10453867;28;20075;-48
2022/04/18 11:22:39;;;;;;;3.97;2.55;;;17.90;60.30;;;;;;10471338;28;20520;-48
2022/04/18 11:27:41;;;;;;;3.85;2.25;;;18.00;60.20;;;;;;10462076;28;20120;-48
2022/04/18 11:32:46;;;;;;;5.03;2.63;;;18.00;60.30;;;;;;10462142;28;20123;-48
2022/04/18 11:37:47;;;;;;;3.45;2.45;;;18.00;60.20;;;;;;10461877;28;20086;-48
2022/04/18 11:42:47;;;;;;;4.70;3.08;;;18.00;60.20;;;;;;10461997;28;20163;-48
2022/04/18 11:47:48;;;;;;;3.33;2.40;;;18.10;60.20;;;;;;10461336;28;20068;-49
2022/04/18 11:53:03;;;;;;;5.78;2.45;;;18.10;60.20;;;;;;10461316;28;20052;-48
2022/04/18 11:58:03;;;;;;;3.05;1.98;;;18.10;60.20;;;;;;10459602;28;20029;-48
2022/04/18 12:08:31;;;;;;;2.88;2.00;;;18.20;60.10;;;;;;10460259;28;20045;-51
2022/04/18 12:13:32;;;;;;;4.38;2.35;;;18.30;60.10;;;;;;10459603;28;20507;-50
2022/04/18 12:18:34;;;;;;;2.28;1.80;;;18.30;60.10;;;;;;10459906;28;20070;-47
2022/04/18 12:23:34;;;;;;;4.30;1.70;;;18.30;60.10;;;;;;10460425;28;20064;-48
2022/04/18 12:28:35;;;;;;;3.03;2.38;;;18.30;60.10;;;;;;10441437;28;20465;-48
2022/04/18 12:33:50;;;;;;;4.13;2.30;;;18.30;60.10;;;;;;10458889;28;20029;-47
2022/04/18 12:38:51;;;;;;;3.15;2.00;;;18.30;60.10;;;;;;10459457;28;20083;-49
2022/04/18 12:43:52;;;;;;;5.32;2.50;;;18.30;60.00;;;;;;10459537;28;20021;-48
2022/04/18 12:48:52;;;;;;;3.80;2.17;;;18.40;60.70;;;;;;10457718;28;20473;-46
2022/04/18 12:53:55;;;;;;;2.95;1.88;;;18.40;60.00;;;;;;10459043;28;20060;-49
2022/04/18 12:59:06;;;;;;;2.38;1.60;;;18.40;60.00;;;;;;10458314;28;20033;-50
2022/04/18 13:04:28;;;;;;;4.22;2.22;;;18.40;60.00;;;;;;10457520;28;20102;-49
2022/04/18 13:09:29;;;;;;;2.70;1.65;;;18.50;60.00;;;;;;10456771;28;20041;-50
2022/04/18 13:14:31;;;;;;;2.35;1.75;;;18.50;60.00;;;;;;10458512;28;20388;-49
2022/04/18 13:19:31;;;;;;;2.40;1.40;;;18.50;59.90;;;;;;10457458;28;20090;-49
2022/04/18 13:24:32;;;;;;;3.00;1.80;;;18.50;59.90;;;;;;10459329;28;20453;-46
2022/04/18 13:29:33;;;;;;;2.38;1.75;;;18.60;59.90;;;;;;10457398;28;20083;-48
2022/04/18 13:34:34;;;;;;;2.25;1.60;;;18.50;59.90;;;;;;10457392;28;20057;-50
2022/04/18 13:39:34;;;;;;;2.17;1.55;;;18.50;59.90;;;;;;10456803;28;20068;-47
2022/04/18 13:44:35;;;;;;;2.55;1.40;;;18.60;59.90;;;;;;10456691;28;20120;-49
2022/04/18 13:49:37;;;;;;;3.17;1.70;;;18.60;59.90;;;;;;10456590;28;20060;-51
2022/04/18 13:54:39;;;;;;;2.17;1.35;;;18.60;59.90;;;;;;10456673;28;20032;-49
2022/04/18 13:59:39;;;;;;;3.10;1.85;;;18.60;59.90;;;;;;10456389;28;20048;-50
2022/04/18 14:04:40;;;;;;;2.50;1.77;;;18.60;59.80;;;;;;10456466;28;20053;-48
2022/04/18 14:09:42;;;;;;;3.53;1.70;;;18.60;59.70;;;;;;10455930;28;20108;-50
2022/04/18 14:20:20;;;;;;;2.60;1.60;;;18.60;59.90;;;;;;10455167;28;20033;-47
2022/04/18 14:25:22;;;;;;;1.88;1.42;;;18.60;59.90;;;;;;10455854;28;20116;-47
2022/04/18 14:30:22;;;;;;;3.20;1.55;;;18.60;60.00;;;;;;10453532;28;20051;-48
2022/04/18 14:35:24;;;;;;;2.58;1.27;;;18.60;60.00;;;;;;10455118;28;20124;-46
2022/04/18 14:40:28;;;;;;;3.30;1.30;;;18.60;60.10;;;;;;10454730;28;20025;-47
2022/04/18 14:45:29;;;;;;;2.22;1.58;;;18.60;60.10;;;;;;10454696;28;20112;-47
2022/04/18 14:50:29;;;;;;;1.75;1.40;;;18.60;60.10;;;;;;10454628;28;20493;-48
2022/04/18 14:55:30;;;;;;;2.42;1.50;;;18.60;60.20;;;;;;10454479;28;20025;-47
2022/04/18 15:00:32;;;;;;;2.70;1.45;;;18.50;60.20;;;;;;10454438;28;20033;-47
2022/04/18 15:05:32;;;;;;;1.45;0.98;;;18.50;60.20;;;;;;10454130;28;20071;-48
2022/04/18 15:10:33;;;;;;;1.33;0.90;;;18.50;60.20;;;;;;10454093;28;20559;-48
2022/04/18 15:15:34;;;;;;;2.40;1.52;;;18.60;60.30;;;;;;10454002;28;20469;-51
2022/04/18 15:20:35;;;;;;;1.92;1.25;;;18.50;60.30;;;;;;10454082;28;20061;-49
2022/04/18 15:25:37;;;;;;;2.40;1.30;;;18.50;60.30;;;;;;10470145;28;20347;-52
2022/04/18 15:35:57;;;;;;;2.60;1.30;;;18.50;60.40;;;;;;10452608;28;20037;-47
2022/04/18 15:40:57;;;;;;;1.52;1.10;;;18.50;60.40;;;;;;10452363;28;20029;-49
2022/04/18 15:46:00;;;;;;;3.03;1.83;;;18.50;60.40;;;;;;10452951;28;20104;-47
2022/04/18 15:51:01;;;;;;;1.55;1.00;;;18.50;60.40;;;;;;10453640;28;20021;-49
2022/04/18 15:56:06;;;;;;;2.60;1.20;;;18.50;60.50;;;;;;10451911;28;20036;-48
2022/04/18 16:01:07;;;;;;;1.58;1.15;;;18.50;60.50;;;;;;10453067;28;20456;-50
2022/04/18 16:06:08;;;;;;;1.42;1.20;;;18.50;60.60;;;;;;10457960;28;20199;-47
2022/04/18 16:11:09;;;;;;;1.73;1.25;;;18.50;60.60;;;;;;10459667;28;20068;-46
2022/04/18 16:16:10;;;;;;;2.28;1.30;;;18.50;60.60;;;;;;10460382;28;20452;-49
2022/04/18 16:21:11;;;;;;;2.58;1.30;;;18.50;60.50;;;;;;10460755;28;20060;-48
2022/04/18 16:26:12;;;;;;;1.83;1.33;;;18.50;60.60;;;;;;10458910;28;20388;-47
2022/04/18 16:36:32;;;;;;;1.35;1.10;;;18.40;60.60;;;;;;10458678;28;20404;-49
2022/04/18 16:46:52;;;;;;;1.75;0.77;;;18.40;60.70;;;;;;10459264;28;20052;-47
2022/04/18 16:51:53;;;;;;;1.70;1.17;;;18.40;60.70;;;;;;10459393;28;20029;-47
2022/04/18 16:56:53;;;;;;;2.08;0.93;;;18.40;60.80;;;;;;10459001;28;20048;-49
2022/04/18 17:01:54;;;;;;;2.03;1.10;;;18.40;60.80;;;;;;10459138;28;20506;-48
2022/04/18 17:06:55;;;;;;;1.55;1.00;;;18.40;60.70;;;;;;10458312;28;20112;-46
2022/04/18 17:11:55;;;;;;;1.63;1.10;;;18.40;60.80;;;;;;10457325;28;20054;-49
2022/04/18 17:16:57;;;;;;;1.65;0.95;;;18.40;60.80;;;;;;10456994;28;20041;-47
2022/04/18 17:21:58;;;;;;;1.75;0.88;;;18.40;60.80;;;;;;10459595;28;20091;-49
2022/04/18 17:26:59;;;;;;;1.70;1.00;;;18.40;60.80;;;;;;10457631;28;20453;-50
2022/04/18 17:32:04;;;;;;;2.42;0.90;;;18.40;60.80;;;;;;10457827;28;20151;-49
2022/04/18 17:37:05;;;;;;;1.92;1.00;;;18.30;60.80;;;;;;10457258;28;20041;-47
2022/04/18 17:42:07;;;;;;;2.33;1.23;;;18.30;60.80;;;;;;10457444;28;20036;-47
2022/04/18 17:47:08;;;;;;;2.00;1.13;;;18.30;60.80;;;;;;10456920;28;20037;-49
2022/04/18 17:52:09;;;;;;;1.58;1.02;;;18.30;60.80;;;;;;10456939;28;20122;-47
2022/04/18 17:57:09;;;;;;;0.98;0.70;;;18.30;60.90;;;;;;10471834;28;20216;-49
2022/04/18 18:02:11;;;;;;;1.90;0.95;;;18.30;60.90;;;;;;10455351;28;20410;-48
2022/04/18 18:07:11;;;;;;;1.60;1.00;;;18.30;60.90;;;;;;10456040;28;20036;-51
2022/04/18 18:12:12;;;;;;;2.47;1.05;;;18.30;60.90;;;;;;10456118;28;20059;-49
2022/04/18 18:17:13;;;;;;;1.25;0.95;;;18.30;60.90;;;;;;10455326;28;20037;-50
2022/04/18 18:22:14;;;;;;;1.33;0.75;;;18.30;60.90;;;;;;10470001;28;20033;-50
2022/04/18 18:27:14;;;;;;;2.42;1.17;;;18.20;60.90;;;;;;10440106;28;20048;-50
2022/04/18 18:32:15;;;;;;;1.58;0.80;;;18.20;60.80;;;;;;10453527;28;20129;-47
2022/04/18 18:37:17;;;;;;;1.42;0.98;;;18.20;60.70;;;;;;10454844;28;20108;-48
2022/04/18 18:42:18;;;;;;;1.63;0.95;;;18.20;60.10;;;;;;10454075;28;20108;-50
2022/04/18 18:47:19;;;;;;;3.10;1.10;;;18.20;60.50;;;;;;10453873;28;20037;-48
2022/04/18 18:52:23;;;;;;;1.40;0.70;;;18.20;59.90;;;;;;10454557;28;20462;-49
2022/04/18 18:57:23;;;;;;;2.60;1.05;;;18.20;61.10;;;;;;10452634;28;20083;-49
2022/04/18 19:02:24;;;;;;;3.92;1.55;;;18.20;60.50;;;;;;10453300;28;20057;-47
2022/04/18 19:07:27;;;;;;;1.92;1.30;;;18.20;59.80;;;;;;10452044;28;20054;-53
2022/04/18 19:12:29;;;;;;;1.17;0.80;;;18.20;60.00;;;;;;10451716;28;20037;-54
2022/04/18 19:28:09;;;;;;;2.70;0.80;;;18.20;59.50;;;;;;10453118;28;20065;-51
2022/04/18 19:33:10;;;;;;;2.67;1.13;;;18.20;59.60;;;;;;10452799;28;20029;-53
2022/04/18 19:38:10;;;;;;;1.23;0.80;;;18.20;59.70;;;;;;10452890;28;20024;-53
2022/04/18 19:43:12;;;;;;;1.17;0.80;;;18.20;59.70;;;;;;10461948;28;20058;-55
2022/04/18 19:48:12;;;;;;;2.28;0.98;;;18.20;59.60;;;;;;10462039;28;20483;-53
2022/04/18 19:53:14;;;;;;;2.65;1.45;;;18.20;59.50;;;;;;10449143;28;20064;-52
2022/04/18 19:58:17;;;;;;;1.83;0.80;;;18.20;60.20;;;;;;10460934;28;20040;-52
2022/04/18 20:03:18;;;;;;;1.77;0.80;;;18.20;59.50;;;;;;10460963;28;20354;-52
2022/04/18 20:08:21;;;;;;;2.58;1.13;;;18.10;59.30;;;;;;10456069;28;20033;-50
2022/04/18 20:13:21;;;;;;;2.63;0.95;;;18.10;59.20;;;;;;10459461;28;20033;-52
2022/04/18 20:18:25;;;;;;;1.65;0.98;;;18.10;59.00;;;;;;10458843;28;20423;-51
2022/04/18 20:23:31;;;;;;;1.73;1.02;;;18.10;59.00;;;;;;10460965;28;20021;-51
2022/04/18 20:28:34;;;;;;;1.27;0.70;;;18.10;59.00;;;;;;10459395;28;20604;-52
2022/04/18 20:33:36;;;;;;;1.60;1.17;;;18.10;59.00;;;;;;10459730;28;20032;-51
2022/04/18 20:38:36;;;;;;;1.83;0.90;;;18.10;59.00;;;;;;10452518;28;20430;-53
2022/04/18 20:43:37;;;;;;;1.95;1.10;;;18.10;59.00;;;;;;10459803;28;20079;-52
2022/04/18 20:48:40;;;;;;;1.60;0.85;;;18.10;59.00;;;;;;10459264;28;20122;-53
2022/04/18 20:59:00;;;;;;;2.10;0.70;;;18.10;59.00;;;;;;10458586;28;20044;-52
2022/04/18 21:04:02;;;;;;;1.73;1.05;;;18.00;59.00;;;;;;10459102;28;20021;-53
2022/04/18 21:09:04;;;;;;;2.35;1.20;;;18.00;58.90;;;;;;10458413;28;20033;-53
2022/04/18 21:14:08;;;;;;;2.10;1.05;;;18.00;59.00;;;;;;10458454;28;20032;-51
2022/04/18 21:19:08;;;;;;;1.67;0.80;;;18.00;58.90;;;;;;10457878;28;20041;-52
2022/04/18 21:24:12;;;;;;;1.67;1.08;;;18.00;58.90;;;;;;10459273;28;20479;-53
2022/04/18 21:29:13;;;;;;;2.10;1.02;;;18.00;58.90;;;;;;10457618;28;20047;-53
2022/04/18 21:34:13;;;;;;;2.83;1.05;;;18.00;58.80;;;;;;10457892;28;20112;-51
2022/04/18 21:39:14;;;;;;;1.50;0.93;;;18.00;58.80;;;;;;10457277;28;20067;-51
2022/04/18 21:44:15;;;;;;;1.67;0.70;;;18.00;58.80;;;;;;10457399;28;20021;-52
2022/04/18 21:49:16;;;;;;;2.30;1.50;;;18.00;58.80;;;;;;10457037;28;20425;-53
2022/04/18 21:54:18;;;;;;;1.42;0.85;;;18.00;58.70;;;;;;10456774;28;20493;-51
2022/04/18 21:59:19;;;;;;;1.85;0.90;;;18.00;58.70;;;;;;10454832;28;20041;-50
2022/04/18 22:04:19;;;;;;;1.48;0.82;;;18.00;58.70;;;;;;10456024;28;20165;-52
2022/04/18 22:09:20;;;;;;;1.00;0.70;;;18.00;58.70;;;;;;10454990;28;20075;-54
2022/04/18 22:14:21;;;;;;;2.03;1.20;;;18.00;58.60;;;;;;10456109;28;20388;-54
2022/04/18 22:24:57;;;;;;;1.90;1.20;;;17.90;58.40;;;;;;10457734;28;20040;-52
2022/04/18 22:30:07;;;;;;;1.60;1.20;;;17.90;58.40;;;;;;10455358;28;20045;-52
2022/04/18 22:35:09;;;;;;;;;;;17.90;58.40;;;;;;10454541;28;20036;-54
2022/04/18 22:40:10;;;;;;;1.88;1.23;;;17.90;58.40;;;;;;10454980;28;20408;-53
2022/04/18 22:45:11;;;;;;;5.90;1.20;;;17.90;58.30;;;;;;10455222;28;20029;-54
2022/04/18 22:50:12;;;;;;;2.13;1.17;;;17.90;58.30;;;;;;10454566;28;20032;-51
2022/04/18 22:55:13;;;;;;;1.35;1.00;;;17.90;58.30;;;;;;10454477;28;20155;-50
2022/04/18 23:00:19;;;;;;;1.58;1.00;;;17.90;58.30;;;;;;10454624;28;20120;-52
2022/04/18 23:10:40;;;;;;;2.28;1.33;;;17.90;58.20;;;;;;10454497;28;20048;-52
2022/04/18 23:15:41;;;;;;;2.53;1.52;;;17.90;58.20;;;;;;10468849;28;20104;-53
2022/04/18 23:20:42;;;;;;;2.25;1.05;;;17.80;58.20;;;;;;10455162;28;20053;-52
2022/04/18 23:25:43;;;;;;;1.23;1.02;;;17.80;58.10;;;;;;10454103;28;20036;-53
2022/04/18 23:30:44;;;;;;;2.38;0.90;;;17.80;58.10;;;;;;10453635;28;20049;-53
2022/04/18 23:35:46;;;;;;;1.98;1.10;;;17.80;58.10;;;;;;10454081;28;20028;-51
2022/04/18 23:46:07;;;;;;;1.93;1.30;;;17.80;58.00;;;;;;10453879;28;20108;-53
2022/04/18 23:51:08;;;;;;;1.60;1.00;;;17.80;58.10;;;;;;10453358;28;20040;-49
2022/04/18 23:56:08;;;;;;;1.98;1.30;;;17.80;58.00;;;;;;10453533;28;20066;-52
